createdAt,value
2022-10-13T00:00:55.658Z,8.39
2022-10-13T00:06:59.815Z,8.32
2022-10-13T00:09:26.327Z,8.15
2022-10-13T00:11:56.399Z,8.25
2022-10-13T00:14:22.691Z,8.27
2022-10-13T00:16:49.038Z,8.26
2022-10-13T00:19:15.364Z,8.17
2022-10-13T00:21:41.672Z,8.09
2022-10-13T00:24:11.159Z,8.01
2022-10-13T00:26:37.476Z,7.88
2022-10-13T00:29:04.050Z,7.83
2022-10-13T00:31:32.136Z,7.73
2022-10-13T00:34:00.412Z,7.68
2022-10-13T00:36:27.459Z,7.67
2022-10-13T00:38:54.123Z,7.55
2022-10-13T00:41:21.335Z,7.57
2022-10-13T00:44:00.983Z,7.61
2022-10-13T00:46:30.639Z,7.55
2022-10-13T00:49:00.669Z,7.58
2022-10-13T00:51:31.248Z,7.61
2022-10-13T00:53:59.420Z,7.56
2022-10-13T00:56:27.363Z,7.63
2022-10-13T00:58:55.167Z,7.63
2022-10-13T01:01:22.112Z,7.65
2022-10-13T01:03:48.399Z,7.67
2022-10-13T01:06:19.907Z,7.48
2022-10-13T01:08:49.743Z,7.62
2022-10-13T01:11:34.805Z,7.66
2022-10-13T01:14:28.076Z,7.68
2022-10-13T01:17:15.921Z,7.67
2022-10-13T01:20:28.283Z,7.64
2022-10-13T01:23:10.929Z,7.65
2022-10-13T01:26:15.689Z,7.62
2022-10-13T01:28:53.825Z,7.61
2022-10-13T01:31:30.708Z,7.62
2022-10-13T01:33:59.438Z,7.66
2022-10-13T01:36:43.396Z,7.63
2022-10-13T01:39:22.310Z,7.68
2022-10-13T01:41:53.803Z,7.72
2022-10-13T01:44:32.532Z,7.73
2022-10-13T01:47:01.119Z,7.72
2022-10-13T01:49:32.196Z,7.73
2022-10-13T01:52:02.887Z,7.74
2022-10-13T01:54:29.195Z,7.74
2022-10-13T01:56:56.719Z,7.77
2022-10-13T01:59:25.543Z,7.73
2022-10-13T02:02:02.445Z,7.75
2022-10-13T02:04:56.427Z,7.72
2022-10-13T02:07:49.312Z,7.67
2022-10-13T02:10:32.696Z,7.41
2022-10-13T02:13:02.458Z,7.31
2022-10-13T02:15:33.788Z,7.35
2022-10-13T02:18:01.891Z,7.38
2022-10-13T02:20:28.774Z,7.42
2022-10-13T02:23:00.230Z,7.44
2022-10-13T02:25:27.893Z,7.41
2022-10-13T02:27:55.528Z,7.40
2022-10-13T02:30:29.031Z,7.39
2022-10-13T02:32:55.344Z,7.32
2022-10-13T02:35:21.931Z,7.31
2022-10-13T02:37:48.319Z,7.27
2022-10-13T02:40:14.825Z,7.27
2022-10-13T02:42:41.118Z,7.26
2022-10-13T02:45:08.325Z,7.28
2022-10-13T02:47:34.900Z,7.28
2022-10-13T02:50:01.303Z,7.27
2022-10-13T02:52:27.776Z,7.24
2022-10-13T02:54:54.081Z,7.27
2022-10-13T02:57:20.450Z,7.24
2022-10-13T02:59:46.755Z,7.21
2022-10-13T03:02:13.590Z,7.27
2022-10-13T03:04:39.984Z,7.26
2022-10-13T03:07:06.340Z,7.29
2022-10-13T03:09:32.910Z,7.27
2022-10-13T03:11:59.217Z,7.33
2022-10-13T03:14:25.743Z,7.31
2022-10-13T03:16:52.048Z,7.37
2022-10-13T03:19:18.354Z,7.34
2022-10-13T03:21:45.294Z,7.34
2022-10-13T03:24:11.900Z,7.44
2022-10-13T03:26:38.182Z,7.43
2022-10-13T03:29:04.499Z,7.47
2022-10-13T03:31:30.912Z,7.51
2022-10-13T03:33:57.259Z,7.49
2022-10-13T03:36:23.683Z,7.46
2022-10-13T03:38:50.103Z,7.54
2022-10-13T03:41:18.346Z,7.49
2022-10-13T03:43:45.047Z,7.54
2022-10-13T03:46:14.203Z,7.49
2022-10-13T03:48:40.804Z,7.47
2022-10-13T03:51:12.883Z,7.52
2022-10-13T03:53:39.777Z,7.53
2022-10-13T03:56:06.510Z,7.47
2022-10-13T03:58:32.903Z,7.53
2022-10-13T04:01:03.311Z,7.59
2022-10-13T04:03:29.732Z,7.56
2022-10-13T04:06:00.044Z,7.60
2022-10-13T04:08:27.202Z,7.60
2022-10-13T04:11:01.791Z,7.58
2022-10-13T04:13:28.150Z,7.68
2022-10-13T04:15:54.482Z,7.68
2022-10-13T04:18:20.875Z,7.74
2022-10-13T04:20:47.372Z,7.75
2022-10-13T04:23:14.316Z,7.76
2022-10-13T04:25:40.652Z,7.77
2022-10-13T04:28:07.425Z,7.77
2022-10-13T04:30:34.938Z,7.74
2022-10-13T04:33:01.642Z,7.77
2022-10-13T04:35:28.066Z,7.76
2022-10-13T04:37:54.402Z,7.77
2022-10-13T04:40:20.707Z,7.75
2022-10-13T04:42:47.160Z,7.73
2022-10-13T04:45:13.507Z,7.70
2022-10-13T04:47:39.898Z,7.76
2022-10-13T04:50:06.566Z,7.76
2022-10-13T04:52:34.488Z,7.75
2022-10-13T04:55:00.884Z,7.75
2022-10-13T04:57:27.309Z,7.72
2022-10-13T04:59:53.763Z,7.71
2022-10-13T05:02:20.394Z,7.72
2022-10-13T05:04:47.024Z,7.70
2022-10-13T05:07:18.115Z,7.71
2022-10-13T05:09:44.988Z,7.71
2022-10-13T05:12:11.379Z,7.69
2022-10-13T05:14:37.709Z,7.71
2022-10-13T05:17:04.039Z,7.59
2022-10-13T05:19:30.335Z,7.60
2022-10-13T05:21:56.732Z,7.47
2022-10-13T05:24:30.941Z,7.55
2022-10-13T05:26:58.071Z,7.53
2022-10-13T05:29:24.522Z,7.44
2022-10-13T05:31:50.822Z,7.41
2022-10-13T05:34:17.129Z,7.41
2022-10-13T05:36:43.520Z,7.44
2022-10-13T05:39:10.033Z,7.48
2022-10-13T05:41:36.415Z,7.59
2022-10-13T05:44:08.480Z,7.53
2022-10-13T05:46:35.166Z,7.49
2022-10-13T05:49:01.592Z,7.46
2022-10-13T05:51:37.479Z,7.48
2022-10-13T05:54:20.233Z,7.49
2022-10-13T05:56:57.560Z,7.46
2022-10-13T05:59:27.236Z,7.50
2022-10-13T06:01:54.336Z,7.50
2022-10-13T06:04:29.967Z,7.45
2022-10-13T06:06:56.231Z,7.53
2022-10-13T06:09:22.561Z,7.56
2022-10-13T06:11:48.899Z,7.61
2022-10-13T06:14:15.230Z,7.64
2022-10-13T06:16:42.079Z,7.75
2022-10-13T06:19:08.379Z,7.70
2022-10-13T06:21:35.578Z,7.64
2022-10-13T06:24:02.527Z,7.70
2022-10-13T06:26:28.835Z,7.69
2022-10-13T06:28:59.262Z,7.72
2022-10-13T06:31:26.060Z,7.70
2022-10-13T06:33:52.430Z,7.81
2022-10-13T06:36:18.821Z,7.82
2022-10-13T06:38:45.119Z,7.82
2022-10-13T06:41:14.063Z,7.88
2022-10-13T06:43:41.035Z,7.95
2022-10-13T06:46:08.056Z,8.00
2022-10-13T06:48:34.676Z,8.00
2022-10-13T06:51:02.776Z,8.10
2022-10-13T06:53:29.176Z,8.06
2022-10-13T06:56:00.190Z,8.08
2022-10-13T06:58:26.973Z,8.13
2022-10-13T07:00:53.812Z,8.26
2022-10-13T07:03:24.941Z,8.22
2022-10-13T07:05:51.780Z,8.26
2022-10-13T07:08:18.988Z,8.35
2022-10-13T07:10:45.339Z,8.36
2022-10-13T07:13:11.877Z,8.50
2022-10-13T07:15:40.149Z,8.50
2022-10-13T07:18:07.521Z,8.48
2022-10-13T07:20:34.209Z,8.52
2022-10-13T07:23:00.581Z,8.57
2022-10-13T07:25:28.005Z,8.58
2022-10-13T07:27:54.472Z,8.67
2022-10-13T07:30:21.200Z,8.65
2022-10-13T07:32:48.158Z,8.67
2022-10-13T07:35:14.590Z,8.67
2022-10-13T07:37:40.955Z,8.72
2022-10-13T07:40:08.281Z,8.73
2022-10-13T07:42:34.618Z,8.72
2022-10-13T07:45:00.988Z,8.73
2022-10-13T07:47:28.450Z,8.76
2022-10-13T07:49:55.615Z,8.85
2022-10-13T07:52:22.352Z,8.88
2022-10-13T07:54:50.099Z,8.99
2022-10-13T07:57:16.692Z,9.15
2022-10-13T07:59:43.024Z,9.17
2022-10-13T08:02:10.058Z,9.15
2022-10-13T08:04:36.762Z,9.12
2022-10-13T08:07:05.799Z,9.18
2022-10-13T08:09:33.080Z,9.21
2022-10-13T08:12:00.903Z,9.24
2022-10-13T08:14:29.320Z,9.25
2022-10-13T08:16:56.278Z,9.30
2022-10-13T08:19:22.860Z,9.38
2022-10-13T08:21:58.742Z,9.38
2022-10-13T08:24:26.254Z,9.41
2022-10-13T08:26:52.793Z,9.49
2022-10-13T08:29:23.859Z,9.46
2022-10-13T08:31:53.185Z,9.44
2022-10-13T08:34:21.200Z,9.48
2022-10-13T08:36:47.716Z,9.56
2022-10-13T08:39:14.289Z,9.63
2022-10-13T08:41:46.715Z,9.70
2022-10-13T08:47:27.048Z,9.80
2022-10-13T08:50:00.835Z,9.76
2022-10-13T08:52:43.271Z,9.85
2022-10-13T08:55:17.893Z,9.86
2022-10-13T08:57:44.533Z,9.96
2022-10-13T09:00:13.184Z,10.03
2022-10-13T09:02:40.034Z,10.04
2022-10-13T09:05:17.427Z,10.02
2022-10-13T09:07:45.951Z,10.01
2022-10-13T09:10:12.592Z,9.99
2022-10-13T09:12:39.396Z,9.97
2022-10-13T09:15:11.284Z,10.06
2022-10-13T09:17:40.596Z,9.97
2022-10-13T09:20:19.692Z,10.03
2022-10-13T09:23:01.466Z,10.08
2022-10-13T09:25:27.941Z,10.08
2022-10-13T09:28:01.634Z,10.13
2022-10-13T09:30:48.551Z,10.02
2022-10-13T09:33:19.975Z,10.08
2022-10-13T09:35:58.619Z,10.14
2022-10-13T09:38:26.587Z,10.19
2022-10-13T09:41:06.519Z,10.22
2022-10-13T09:43:47.005Z,10.21
2022-10-13T09:46:23.839Z,10.14
2022-10-13T09:49:00.214Z,10.18
2022-10-13T09:51:32.744Z,10.15
2022-10-13T09:53:59.571Z,10.22
2022-10-13T09:56:33.604Z,10.28
2022-10-13T09:59:10.785Z,10.30
2022-10-13T10:01:41.744Z,10.30
2022-10-13T10:04:15.013Z,10.32
2022-10-13T10:06:42.711Z,10.33
2022-10-13T10:09:39.882Z,10.28
2022-10-13T10:12:09.424Z,10.33
2022-10-13T10:14:39.242Z,10.31
2022-10-13T10:17:30.833Z,10.37
2022-10-13T10:20:17.254Z,10.44
2022-10-13T10:23:09.382Z,10.47
2022-10-13T10:25:59.157Z,10.51
2022-10-13T10:28:37.653Z,10.63
2022-10-13T10:31:38.839Z,10.62
2022-10-13T10:34:24.103Z,10.72
2022-10-13T10:37:03.456Z,10.84
2022-10-13T10:40:04.260Z,10.96
2022-10-13T10:42:52.473Z,11.06
2022-10-13T10:45:23.981Z,11.21
2022-10-13T10:47:56.886Z,11.25
2022-10-13T10:50:24.214Z,11.29
2022-10-13T10:53:00.198Z,11.47
2022-10-13T10:55:29.548Z,11.59
2022-10-13T11:06:45.683Z,11.85
2022-10-13T11:09:18.710Z,11.77
2022-10-13T11:11:50.309Z,11.52
2022-10-13T11:14:30.350Z,11.93
2022-10-13T11:17:07.895Z,12.14
2022-10-13T11:19:40.812Z,12.21
2022-10-13T11:22:08.957Z,12.26
2022-10-13T11:24:42.610Z,12.32
2022-10-13T11:27:12.675Z,12.43
2022-10-13T11:29:57.810Z,12.49
2022-10-13T11:32:41.433Z,12.51
2022-10-13T11:35:19.523Z,12.55
2022-10-13T11:38:07.433Z,12.61
2022-10-13T11:40:37.443Z,12.62
2022-10-13T11:43:10.263Z,12.70
2022-10-13T11:45:58.088Z,12.81
2022-10-13T11:48:53.635Z,12.84
2022-10-13T11:51:57.910Z,12.88
2022-10-13T11:54:39.982Z,12.96
2022-10-13T11:57:24.460Z,13.01
2022-10-13T11:59:55.291Z,12.96
2022-10-13T12:02:26.885Z,13.11
2022-10-13T12:05:02.691Z,13.18
2022-10-13T12:07:36.934Z,13.28
2022-10-13T12:10:07.088Z,13.34
2022-10-13T12:12:33.817Z,13.27
2022-10-13T12:15:04.150Z,13.25
2022-10-13T12:17:38.825Z,13.38
2022-10-13T12:20:21.983Z,13.41
2022-10-13T12:22:49.730Z,13.42
2022-10-13T12:25:19.264Z,13.41
2022-10-13T12:27:48.444Z,13.52
2022-10-13T12:30:36.165Z,13.61
2022-10-13T12:33:04.136Z,13.75
2022-10-13T12:35:32.912Z,13.81
2022-10-13T12:38:06.492Z,13.86
2022-10-13T12:40:34.096Z,13.71
2022-10-13T12:43:01.062Z,13.76
2022-10-13T12:45:32.942Z,13.60
2022-10-13T12:47:59.448Z,13.66
2022-10-13T12:50:27.320Z,13.64
2022-10-13T12:53:10.880Z,13.71
2022-10-13T12:55:50.278Z,13.72
2022-10-13T12:58:21.670Z,13.77
2022-10-13T13:01:26.792Z,13.83
2022-10-13T13:03:58.823Z,13.91
2022-10-13T13:06:33.889Z,13.86
2022-10-13T13:09:20.840Z,13.80
2022-10-13T13:11:47.579Z,13.86
2022-10-13T13:14:37.289Z,13.88
2022-10-13T13:17:13.020Z,13.82
2022-10-13T13:19:42.179Z,13.83
2022-10-13T13:22:08.967Z,13.80
2022-10-13T13:24:40.057Z,13.89
2022-10-13T13:27:23.998Z,13.95
2022-10-13T13:29:50.733Z,14.03
2022-10-13T13:32:20.376Z,13.99
2022-10-13T13:34:47.225Z,14.03
2022-10-13T13:37:22.865Z,14.01
2022-10-13T13:39:49.376Z,14.00
2022-10-13T13:42:15.814Z,14.03
2022-10-13T13:44:42.161Z,14.06
2022-10-13T13:47:17.440Z,14.13
2022-10-13T13:49:43.934Z,14.19
2022-10-13T13:52:10.241Z,14.23
2022-10-13T13:54:36.637Z,14.20
2022-10-13T13:57:03.108Z,14.11
2022-10-13T13:59:29.459Z,13.98
2022-10-13T14:01:55.925Z,14.09
2022-10-13T14:04:22.489Z,14.12
2022-10-13T14:06:48.769Z,14.10
2022-10-13T14:09:15.060Z,14.08
2022-10-13T14:11:41.370Z,14.06
2022-10-13T14:14:07.662Z,14.01
2022-10-13T14:16:33.985Z,14.00
2022-10-13T14:19:00.282Z,14.07
2022-10-13T14:21:26.631Z,14.09
2022-10-13T14:23:52.952Z,14.13
2022-10-13T14:26:19.246Z,14.07
2022-10-13T14:28:45.679Z,14.08
2022-10-13T14:31:12.057Z,14.09
2022-10-13T14:33:38.615Z,14.04
2022-10-13T14:36:06.636Z,14.05
2022-10-13T14:38:33.645Z,14.09
2022-10-13T14:41:01.633Z,14.08
2022-10-13T14:43:28.312Z,14.20
2022-10-13T14:45:55.175Z,14.19
2022-10-13T14:48:24.774Z,14.13
2022-10-13T14:50:51.326Z,14.09
2022-10-13T14:53:17.720Z,14.11
2022-10-13T14:55:44.998Z,14.08
2022-10-13T14:58:11.756Z,14.06
2022-10-13T15:00:38.638Z,14.13
2022-10-13T15:03:04.964Z,14.10
2022-10-13T15:05:31.417Z,14.07
2022-10-13T15:07:57.989Z,14.10
2022-10-13T15:10:24.319Z,14.07
2022-10-13T15:12:50.653Z,14.06
2022-10-13T15:15:16.973Z,14.06
2022-10-13T15:17:43.283Z,14.02
2022-10-13T15:20:09.993Z,14.02
2022-10-13T15:22:36.367Z,14.03
2022-10-13T15:25:04.426Z,13.99
2022-10-13T15:27:30.755Z,13.93
2022-10-13T15:29:57.056Z,13.92
2022-10-13T15:32:23.833Z,13.88
2022-10-13T15:34:50.379Z,13.89
2022-10-13T15:37:16.708Z,13.85
2022-10-13T15:39:43.294Z,13.81
2022-10-13T15:42:11.139Z,13.79
2022-10-13T15:45:08.226Z,13.76
2022-10-13T15:47:24.299Z,13.73
2022-10-13T15:49:50.605Z,13.69
2022-10-13T15:52:16.881Z,13.71
2022-10-13T15:54:43.211Z,13.69
2022-10-13T15:57:09.542Z,13.63
2022-10-13T15:59:35.831Z,13.62
2022-10-13T16:02:02.126Z,13.59
2022-10-13T16:04:29.736Z,13.53
2022-10-13T16:06:57.634Z,13.50
2022-10-13T16:09:23.963Z,13.45
2022-10-13T16:11:52.699Z,13.41
2022-10-13T16:14:19.027Z,13.39
2022-10-13T16:16:45.403Z,13.34
2022-10-13T16:19:11.771Z,13.34
2022-10-13T16:21:38.043Z,13.29
2022-10-13T16:24:04.903Z,13.32
2022-10-13T16:26:31.287Z,13.29
2022-10-13T16:28:58.014Z,13.29
2022-10-13T16:31:24.494Z,13.27
2022-10-13T16:33:50.815Z,13.25
2022-10-13T16:36:19.186Z,13.22
2022-10-13T16:38:46.592Z,13.23
2022-10-13T16:41:16.815Z,13.20
2022-10-13T16:43:44.716Z,13.15
2022-10-13T16:46:13.383Z,13.15
2022-10-13T16:48:40.764Z,13.15
2022-10-13T16:51:09.651Z,13.12
2022-10-13T16:53:35.933Z,13.14
2022-10-13T16:56:04.439Z,13.14
2022-10-13T16:58:30.846Z,13.12
2022-10-13T17:01:05.754Z,13.10
2022-10-13T17:03:32.143Z,13.09
2022-10-13T17:05:58.447Z,13.09
2022-10-13T17:08:24.806Z,13.02
2022-10-13T17:10:57.813Z,13.03
2022-10-13T17:13:24.753Z,13.00
2022-10-13T17:15:53.958Z,12.97
2022-10-13T17:18:20.764Z,12.98
2022-10-13T17:20:55.355Z,12.95
2022-10-13T17:23:22.657Z,12.94
2022-10-13T17:25:48.965Z,12.92
2022-10-13T17:28:15.672Z,12.93
2022-10-13T17:30:42.105Z,12.92
2022-10-13T17:33:09.183Z,12.88
2022-10-13T17:35:35.500Z,12.87
2022-10-13T17:38:01.789Z,12.89
2022-10-13T17:40:28.144Z,12.88
2022-10-13T17:42:55.020Z,12.90
2022-10-13T17:45:22.810Z,12.86
2022-10-13T17:47:50.544Z,12.88
2022-10-13T17:50:18.089Z,12.86
2022-10-13T17:52:44.432Z,12.85
2022-10-13T17:55:10.828Z,12.83
2022-10-13T17:57:37.268Z,12.83
2022-10-13T18:00:06.005Z,12.83
2022-10-13T18:02:32.296Z,12.83
2022-10-13T18:04:58.936Z,12.81
2022-10-13T18:07:25.236Z,12.81
2022-10-13T18:09:52.708Z,12.82
2022-10-13T18:12:19.589Z,12.84
2022-10-13T18:14:45.914Z,12.81
2022-10-13T18:17:12.229Z,12.83
2022-10-13T18:19:40.382Z,12.81
2022-10-13T18:22:06.901Z,12.80
2022-10-13T18:24:33.239Z,12.79
2022-10-13T18:26:59.511Z,12.78
2022-10-13T18:29:25.901Z,12.79
2022-10-13T18:31:55.281Z,12.78
2022-10-13T18:34:22.118Z,12.77
2022-10-13T18:36:51.197Z,12.77
2022-10-13T18:39:20.481Z,12.77
2022-10-13T18:41:47.641Z,12.77
2022-10-13T18:44:14.460Z,12.79
2022-10-13T18:46:40.859Z,12.79
2022-10-13T18:49:12.285Z,12.76
2022-10-13T18:51:39.129Z,12.78
2022-10-13T18:54:05.736Z,12.76
2022-10-13T18:56:33.234Z,12.75
2022-10-13T18:59:01.794Z,12.75
2022-10-13T19:01:31.378Z,12.75
2022-10-13T19:03:58.086Z,12.78
2022-10-13T19:06:27.049Z,12.78
2022-10-13T19:08:56.210Z,12.76
2022-10-13T19:11:23.316Z,12.77
2022-10-13T19:13:50.746Z,12.78
2022-10-13T19:16:20.092Z,12.82
2022-10-13T19:18:47.525Z,12.77
2022-10-13T19:21:14.436Z,12.73
2022-10-13T19:23:40.999Z,12.71
2022-10-13T19:26:16.640Z,12.68
2022-10-13T19:28:44.081Z,12.63
2022-10-13T19:31:20.466Z,12.58
2022-10-13T19:33:50.145Z,12.56
2022-10-13T19:36:26.847Z,12.56
2022-10-13T19:38:54.379Z,12.51
2022-10-13T19:41:21.314Z,12.50
2022-10-13T19:43:47.625Z,12.50
2022-10-13T19:46:14.413Z,12.52
2022-10-13T19:48:40.764Z,12.52
2022-10-13T19:51:08.742Z,12.48
2022-10-13T19:53:36.343Z,12.50
2022-10-13T19:56:02.744Z,12.49
2022-10-13T19:58:29.109Z,12.53
2022-10-13T20:00:55.511Z,12.51
2022-10-13T20:03:21.835Z,12.51
2022-10-13T20:05:48.184Z,12.48
2022-10-13T20:08:14.917Z,12.48
2022-10-13T20:10:43.204Z,12.49
2022-10-13T20:13:10.539Z,12.51
2022-10-13T20:15:41.904Z,12.48
2022-10-13T20:18:09.900Z,12.47
2022-10-13T20:20:36.925Z,12.47
2022-10-13T20:23:03.272Z,12.48
2022-10-13T20:25:29.614Z,12.46
2022-10-13T20:27:55.948Z,12.43
2022-10-13T20:30:22.288Z,12.46
2022-10-13T20:32:48.567Z,12.43
2022-10-13T20:35:14.888Z,12.45
2022-10-13T20:37:41.275Z,12.42
2022-10-13T20:40:08.012Z,12.41
2022-10-13T20:42:34.464Z,12.48
2022-10-13T20:45:00.759Z,12.48
2022-10-13T20:47:27.080Z,12.52
2022-10-13T20:49:53.384Z,12.55
2022-10-13T20:52:19.675Z,12.52
2022-10-13T20:54:46.032Z,12.53
2022-10-13T20:57:12.326Z,12.49
2022-10-13T20:59:38.757Z,12.50
2022-10-13T21:02:05.121Z,12.48
2022-10-13T21:04:31.606Z,12.51
2022-10-13T21:06:57.883Z,12.52
2022-10-13T21:09:24.264Z,12.52
2022-10-13T21:11:50.557Z,12.52
2022-10-13T21:14:16.867Z,12.54
2022-10-13T21:16:43.179Z,12.56
2022-10-13T21:19:09.653Z,12.54
2022-10-13T21:21:36.512Z,12.51
2022-10-13T21:24:05.541Z,12.52
2022-10-13T21:26:32.643Z,12.53
2022-10-13T21:28:59.967Z,12.53
2022-10-13T21:31:26.985Z,12.59
2022-10-13T21:33:54.256Z,12.55
2022-10-13T21:36:27.073Z,12.53
2022-10-13T21:38:55.929Z,12.53
2022-10-13T21:41:23.192Z,12.52
2022-10-13T21:43:51.098Z,12.51
2022-10-13T21:46:24.236Z,12.52
2022-10-13T21:48:53.176Z,12.55
2022-10-13T21:51:25.211Z,12.56
2022-10-13T21:54:00.004Z,12.55
2022-10-13T21:56:27.822Z,12.59
2022-10-13T21:58:55.840Z,12.54
2022-10-13T22:01:23.205Z,12.54
2022-10-13T22:03:53.889Z,12.59
2022-10-13T22:06:20.490Z,12.58
2022-10-13T22:08:49.579Z,12.56
2022-10-13T22:11:17.229Z,12.59
2022-10-13T22:13:43.779Z,12.58
2022-10-13T22:16:14.111Z,12.58
2022-10-13T22:18:40.754Z,12.60
2022-10-13T22:21:10.088Z,12.62
2022-10-13T22:23:36.397Z,12.60
2022-10-13T22:26:02.771Z,12.61
2022-10-13T22:28:33.471Z,12.57
2022-10-13T22:31:07.121Z,12.60
2022-10-13T22:33:35.096Z,12.59
2022-10-13T22:36:07.008Z,12.59
2022-10-13T22:38:33.341Z,12.59
2022-10-13T22:41:04.128Z,12.60
2022-10-13T22:43:30.497Z,12.62
2022-10-13T22:45:56.779Z,12.64
2022-10-13T22:48:23.256Z,12.61
2022-10-13T22:50:49.573Z,12.61
2022-10-13T22:53:15.872Z,12.61
2022-10-13T22:55:42.606Z,12.59
2022-10-13T22:58:09.008Z,12.61
2022-10-13T23:00:36.109Z,12.61
2022-10-13T23:03:02.901Z,12.60
2022-10-13T23:05:29.293Z,12.60
2022-10-13T23:07:55.834Z,12.57
2022-10-13T23:10:22.221Z,12.59
2022-10-13T23:12:48.675Z,12.59
2022-10-13T23:15:15.051Z,12.58
2022-10-13T23:17:41.388Z,12.59
2022-10-13T23:20:08.730Z,12.59
2022-10-13T23:22:35.010Z,12.56
2022-10-13T23:25:01.336Z,12.56
2022-10-13T23:27:27.733Z,12.56
2022-10-13T23:29:54.014Z,12.53
2022-10-13T23:32:20.288Z,12.57
2022-10-13T23:34:46.620Z,12.58
2022-10-13T23:37:12.903Z,12.56
2022-10-13T23:39:39.214Z,12.56
2022-10-13T23:42:05.557Z,12.54
2022-10-13T23:44:31.844Z,12.56
2022-10-13T23:46:58.141Z,12.55
2022-10-13T23:49:24.464Z,12.54
2022-10-13T23:51:50.722Z,12.55
2022-10-13T23:54:17.031Z,12.54
2022-10-13T23:56:43.316Z,12.54
2022-10-13T23:59:09.696Z,12.53
